createdAt,value
2018-08-17T03:33:13.186Z,6.63
2018-08-17T06:14:05.752Z,10.87
2018-08-17T06:16:35.860Z,11.67
2018-08-17T06:19:06.023Z,11.03
2018-08-17T06:21:35.827Z,11.60
2018-08-17T06:24:06.155Z,11.93
2018-08-17T06:26:35.808Z,12.27
2018-08-17T06:29:06.056Z,13.90
2018-08-17T06:31:36.239Z,12.10
2018-08-17T06:34:06.910Z,13.33
2018-08-17T06:36:36.876Z,12.57
2018-08-17T06:44:54.443Z,12.40
2018-08-17T06:47:28.840Z,13.03
2018-08-17T06:50:00.208Z,11.03
2018-08-17T06:52:30.432Z,11.57
2018-08-17T06:55:00.595Z,11.47
2018-08-17T06:57:31.093Z,11.93
2018-08-17T07:00:00.859Z,10.53
2018-08-17T07:02:34.294Z,10.37
2018-08-17T07:05:05.321Z,10.37
2018-08-17T07:07:35.262Z,10.43
2018-08-17T07:10:05.531Z,11.37
2018-08-17T07:12:35.803Z,10.40
2018-08-17T07:17:58.860Z,10.30
2018-08-17T07:20:28.928Z,8.90
2018-08-17T07:25:51.807Z,8.47
2018-08-17T07:31:16.009Z,7.50
2018-08-17T07:36:39.118Z,7.10
2018-08-17T07:44:54.680Z,6.87
2018-08-17T07:50:21.662Z,6.63
2018-08-17T07:52:53.337Z,6.90
2018-08-17T07:55:23.576Z,7.50
2018-08-17T07:57:53.668Z,7.17
2018-08-17T08:00:23.570Z,6.83
2018-08-17T08:05:46.453Z,7.00
2018-08-17T08:57:12.642Z,9.37
2018-08-17T09:11:11.994Z,14.10
2018-08-17T09:13:40.789Z,15.00
2018-08-17T09:22:04.496Z,7.87
2018-08-17T09:24:33.271Z,8.30
2018-08-17T09:29:55.384Z,7.33
2018-08-17T09:41:02.566Z,5.40
2018-08-17T09:43:31.647Z,5.00
2018-08-17T09:46:00.404Z,5.70
2018-08-17T09:48:29.222Z,5.43
2018-08-17T09:50:58.043Z,6.10
2018-08-17T09:53:26.958Z,6.83
2018-08-17T10:01:47.081Z,8.97
2018-08-17T10:04:21.108Z,7.73
2018-08-17T10:06:54.922Z,7.90
2018-08-17T10:10:37.696Z,8.53
2018-08-17T10:13:06.815Z,9.40
2018-08-17T10:24:27.604Z,10.47
2018-08-17T10:26:56.349Z,9.73
2018-08-17T10:38:05.923Z,11.23
2018-08-17T10:46:20.125Z,6.67
2018-08-17T10:48:49.040Z,6.27
2018-08-17T11:02:48.755Z,8.37
2018-08-17T11:08:10.574Z,8.03
2018-08-17T11:10:42.333Z,7.73
2018-08-17T11:13:11.154Z,6.20
2018-08-17T11:15:39.938Z,6.80
2018-08-17T11:23:54.379Z,5.47
2018-08-17T11:26:42.385Z,4.27
2018-08-17T11:29:11.177Z,4.60
2018-08-17T11:37:26.356Z,4.17
2018-08-17T11:40:10.084Z,3.60
2018-08-17T11:46:00.923Z,4.17
2018-08-17T11:55:05.691Z,4.27
2018-08-17T12:00:31.522Z,4.40
2018-08-17T12:14:31.309Z,5.07
2018-08-17T12:17:00.173Z,4.93
2018-08-17T12:19:47.839Z,4.63
2018-08-17T12:22:16.653Z,5.13
2018-08-17T12:27:38.906Z,6.50
2018-08-17T12:53:11.652Z,4.90
2018-08-17T12:58:44.359Z,3.70
2018-08-17T13:01:14.452Z,3.87
2018-08-17T13:03:45.000Z,3.70
2018-08-17T13:06:15.447Z,4.05
2018-08-17T13:12:01.662Z,4.10
2018-08-17T13:14:32.904Z,3.33
2018-08-17T13:17:19.174Z,3.58
2018-08-17T13:19:49.841Z,3.85
2018-08-17T13:28:06.426Z,4.28
2018-08-17T13:36:24.185Z,4.35
2018-08-17T13:38:54.671Z,3.50
2018-08-17T13:41:25.192Z,3.80
2018-08-17T13:46:53.861Z,3.52
2018-08-17T13:49:24.245Z,4.17
2018-08-17T13:51:56.482Z,4.03
2018-08-17T13:54:26.510Z,3.15
2018-08-17T13:56:56.246Z,3.27
2018-08-17T13:59:26.860Z,3.20
2018-08-17T14:01:56.949Z,3.33
2018-08-17T14:04:27.503Z,3.50
2018-08-17T14:06:57.806Z,3.70
2018-08-17T14:09:27.687Z,4.17
2018-08-17T14:12:11.937Z,4.22
2018-08-17T14:14:42.552Z,3.25
2018-08-17T14:17:13.426Z,4.12
2018-08-17T14:19:44.517Z,3.65
2018-08-17T14:22:14.283Z,3.17
2018-08-17T14:24:46.903Z,4.20
2018-08-17T14:27:17.875Z,3.85
2018-08-17T14:29:48.351Z,3.55
2018-08-17T14:32:20.572Z,3.30
2018-08-17T14:34:51.310Z,3.60
2018-08-17T14:37:21.136Z,3.37
2018-08-17T14:39:51.652Z,3.30
2018-08-17T14:42:21.687Z,3.45
2018-08-17T14:47:28.894Z,3.40
2018-08-17T14:50:00.047Z,3.55
2018-08-17T14:52:29.845Z,3.45
2018-08-17T14:55:00.353Z,2.87
2018-08-17T14:57:29.339Z,2.90
2018-08-17T15:00:00.269Z,2.90
2018-08-17T15:02:30.586Z,2.90
2018-08-17T15:05:00.977Z,2.87
2018-08-17T15:07:31.193Z,2.85
2018-08-17T15:10:01.296Z,3.50
2018-08-17T15:12:32.169Z,2.70
2018-08-17T15:15:02.395Z,2.45
2018-08-17T15:17:32.694Z,2.55
2018-08-17T15:20:02.665Z,2.50
2018-08-17T15:22:32.925Z,2.25
2018-08-17T15:25:04.187Z,2.50
2018-08-17T15:28:55.993Z,2.15
2018-08-17T15:31:27.054Z,2.10
2018-08-17T15:33:57.482Z,2.58
2018-08-17T15:39:21.989Z,2.20
2018-08-17T15:41:54.294Z,2.55
2018-08-17T15:44:26.656Z,2.30
2018-08-17T15:46:58.204Z,2.95
2018-08-17T15:52:12.799Z,2.40
2018-08-17T15:54:43.393Z,2.72
2018-08-17T15:57:13.859Z,2.72
2018-08-17T15:59:44.479Z,2.65
2018-08-17T16:02:14.561Z,2.60
2018-08-17T16:04:45.528Z,2.50
2018-08-17T16:07:15.649Z,2.40
2018-08-17T16:09:46.123Z,2.75
2018-08-17T16:12:16.885Z,2.40
2018-08-17T16:14:48.858Z,3.12
2018-08-17T16:17:19.270Z,2.67
2018-08-17T16:19:50.306Z,2.67
2018-08-17T16:22:20.544Z,2.70
2018-08-17T16:24:51.330Z,2.47
2018-08-17T16:27:21.879Z,2.70
2018-08-17T16:32:45.565Z,2.80
2018-08-17T16:48:59.471Z,2.12
2018-08-17T16:51:28.508Z,2.12
2018-08-17T16:53:58.302Z,2.30
2018-08-17T16:56:28.653Z,2.20
2018-08-17T16:58:59.014Z,2.70
2018-08-17T17:01:28.314Z,2.22
2018-08-17T17:03:58.207Z,2.30
2018-08-17T17:06:28.507Z,2.20
2018-08-17T17:09:05.294Z,2.25
2018-08-17T17:11:35.469Z,2.25
2018-08-17T17:14:05.310Z,2.20
2018-08-17T17:16:41.245Z,2.40
2018-08-17T17:19:20.695Z,2.17
2018-08-17T17:21:54.194Z,2.45
2018-08-17T17:24:25.587Z,2.15
2018-08-17T17:27:00.708Z,2.40
2018-08-17T17:29:34.436Z,2.20
2018-08-17T17:32:05.781Z,2.03
2018-08-17T17:34:36.374Z,2.37
2018-08-17T17:37:06.635Z,2.03
2018-08-17T17:39:37.085Z,2.13
2018-08-17T17:42:07.100Z,2.00
2018-08-17T17:44:37.672Z,2.37
2018-08-17T17:47:08.925Z,2.30
2018-08-17T17:49:39.768Z,2.53
2018-08-17T17:52:10.296Z,2.43
2018-08-17T17:54:40.875Z,2.00
2018-08-17T17:57:12.145Z,2.10
2018-08-17T17:59:48.692Z,2.13
2018-08-17T18:02:18.754Z,2.03
2018-08-17T18:04:48.950Z,1.90
2018-08-17T18:07:18.510Z,2.03
2018-08-17T18:09:48.581Z,2.00
2018-08-17T18:12:18.748Z,2.30
2018-08-17T18:14:48.708Z,2.10
2018-08-17T18:17:18.977Z,2.20
2018-08-17T18:19:50.204Z,2.20
2018-08-17T18:22:35.676Z,2.13
2018-08-17T18:25:11.376Z,2.67
2018-08-17T18:27:41.442Z,2.20
2018-08-17T18:30:12.694Z,2.40
2018-08-17T18:32:42.942Z,2.50
2018-08-17T18:35:12.737Z,2.53
2018-08-17T18:37:44.478Z,2.10
2018-08-17T18:40:14.997Z,2.57
2018-08-17T18:42:45.428Z,2.60
2018-08-17T18:45:16.036Z,2.70
2018-08-17T18:47:46.645Z,2.53
2018-08-17T18:50:17.500Z,2.73
2018-08-17T18:52:47.340Z,2.73
2018-08-17T18:55:19.223Z,3.30
2018-08-17T18:57:50.391Z,2.53
2018-08-17T19:00:21.154Z,3.03
2018-08-17T19:02:51.639Z,2.60
2018-08-17T19:05:20.958Z,2.83
2018-08-17T19:07:49.731Z,2.90
2018-08-17T19:10:21.254Z,2.70
2018-08-17T19:12:52.506Z,3.00
2018-08-17T19:15:23.156Z,3.07
2018-08-17T19:17:55.074Z,3.20
2018-08-17T19:20:26.202Z,2.90
2018-08-17T19:22:56.619Z,3.40
2018-08-17T19:25:25.776Z,3.47
2018-08-17T19:27:57.501Z,2.67
2018-08-17T19:30:33.910Z,3.30
2018-08-17T19:33:12.738Z,3.10
2018-08-17T19:35:48.184Z,3.13
2018-08-17T19:38:19.667Z,2.93
2018-08-17T19:40:50.494Z,3.10
2018-08-17T19:43:21.614Z,3.40
2018-08-17T19:45:52.664Z,3.20
2018-08-17T19:48:23.745Z,3.23
2018-08-17T19:50:55.859Z,2.90
2018-08-17T19:53:26.902Z,3.40
2018-08-17T19:58:42.771Z,4.03
2018-08-17T20:01:14.119Z,4.10
2018-08-17T20:03:44.794Z,4.40
2018-08-17T20:06:15.595Z,4.23
2018-08-17T20:11:55.003Z,3.90
2018-08-17T20:14:26.756Z,4.23
2018-08-17T20:16:57.448Z,4.97
2018-08-17T20:19:35.877Z,5.57
2018-08-17T20:22:12.219Z,5.97
2018-08-17T20:24:43.116Z,5.80
2018-08-17T20:27:13.857Z,5.40
2018-08-17T20:29:44.969Z,5.73
2018-08-17T20:32:14.892Z,5.80
2018-08-17T20:34:48.391Z,5.73
2018-08-17T20:37:19.136Z,5.17
2018-08-17T20:39:49.560Z,5.17
2018-08-17T20:42:18.730Z,5.00
2018-08-17T20:44:49.852Z,5.20
2018-08-17T20:47:20.696Z,4.90
2018-08-17T20:49:51.385Z,4.67
2018-08-17T20:52:22.472Z,5.00
2018-08-17T20:54:52.672Z,5.10
2018-08-17T20:57:23.197Z,5.00
2018-08-17T20:59:54.902Z,4.53
2018-08-17T21:02:23.788Z,4.10
2018-08-17T21:04:55.748Z,5.27
2018-08-17T21:07:28.004Z,4.60
2018-08-17T21:09:58.605Z,4.50
2018-08-17T21:12:31.293Z,4.53
2018-08-17T21:15:02.147Z,4.30
2018-08-17T21:17:34.008Z,4.03
2018-08-17T21:20:13.363Z,4.67
2018-08-17T21:22:46.640Z,4.23
2018-08-17T21:25:17.914Z,4.47
2018-08-17T21:27:46.997Z,4.60
2018-08-17T21:30:19.096Z,4.27
2018-08-17T21:32:47.976Z,4.10
2018-08-17T21:35:19.023Z,4.50
2018-08-17T21:37:50.259Z,4.37
2018-08-17T21:40:26.128Z,4.40
2018-08-17T21:42:58.443Z,4.13
2018-08-17T21:45:29.310Z,4.43
2018-08-17T21:48:01.473Z,4.23
2018-08-17T21:50:33.520Z,4.07
2018-08-17T21:53:08.235Z,4.13
2018-08-17T21:55:39.996Z,4.60
2018-08-17T21:58:11.508Z,4.47
2018-08-17T22:00:43.096Z,4.63
2018-08-17T22:03:19.538Z,4.83
2018-08-17T22:05:49.924Z,4.63
2018-08-17T22:08:20.582Z,5.00
2018-08-17T22:10:52.171Z,5.30
2018-08-17T22:13:34.280Z,5.27
2018-08-17T22:16:05.088Z,5.17
2018-08-17T22:18:36.084Z,5.80
2018-08-17T22:21:06.353Z,5.20
2018-08-17T22:23:37.110Z,5.17
2018-08-17T22:26:07.884Z,5.60
2018-08-17T22:28:38.960Z,5.30
2018-08-17T22:31:09.825Z,4.87
2018-08-17T22:33:40.165Z,5.43
2018-08-17T22:36:17.811Z,5.30
2018-08-17T22:38:47.968Z,5.50
2018-08-17T22:41:18.767Z,5.53
2018-08-17T22:43:49.029Z,5.10
2018-08-17T22:46:20.301Z,5.80
2018-08-17T22:48:50.706Z,5.17
2018-08-17T22:51:21.365Z,5.07
2018-08-17T22:53:52.341Z,5.40
2018-08-17T22:56:22.683Z,4.83
2018-08-17T22:58:53.284Z,4.77
2018-08-17T23:01:24.049Z,4.80
2018-08-17T23:03:55.534Z,4.37
2018-08-17T23:06:26.854Z,4.17
2018-08-17T23:08:57.168Z,4.00
2018-08-17T23:11:34.064Z,3.80
2018-08-17T23:14:09.555Z,4.03
2018-08-17T23:16:40.296Z,4.30
2018-08-17T23:19:10.686Z,4.47
2018-08-17T23:21:41.170Z,4.43
2018-08-17T23:24:12.244Z,4.10
2018-08-17T23:26:43.428Z,4.53
2018-08-17T23:29:13.856Z,4.13
2018-08-17T23:31:45.004Z,4.50
2018-08-17T23:34:20.857Z,4.17
2018-08-17T23:36:51.128Z,4.97
2018-08-17T23:59:49.652Z,5.40
